Time;durP1;ratioP1;P1;durP2;ratioP2;P2;SDS_P1;SDS_P2;PMS_P1;PMS_P2;Temp;Humidity;BMP_temperature;BMP_pressure;BME280_temperature;BME280_humidity;BME280_pressure;Samples;Min_cycle;Max_cycle;Signal;HPM_P1;HPM_P2
2023/08/08 00:01:43;;;;;;;8.93;2.65;;;13.80;99.90;;;;;;5011917;28;20038;-81
2023/08/08 00:04:10;;;;;;;6.93;2.50;;;13.90;99.90;;;;;;4997734;28;20088;-80
2023/08/08 00:06:36;;;;;;;6.38;2.53;;;13.80;99.90;;;;;;5032295;28;20037;-80
2023/08/08 00:09:01;;;;;;;5.30;2.30;;;13.70;99.90;;;;;;5015229;28;20102;-80
2023/08/08 00:11:27;;;;;;;7.55;2.55;;;13.80;99.90;;;;;;5015144;28;20045;-81
2023/08/08 00:13:53;;;;;;;6.10;2.50;;;13.70;99.90;;;;;;5012502;28;20046;-80
2023/08/08 00:16:18;;;;;;;4.65;2.17;;;13.70;99.90;;;;;;5016630;28;20046;-81
2023/08/08 00:18:44;;;;;;;5.00;2.20;;;13.70;99.90;;;;;;5027454;28;20780;-81
2023/08/08 00:21:10;;;;;;;6.50;2.47;;;13.60;99.90;;;;;;5032275;28;20042;-81
2023/08/08 00:23:36;;;;;;;4.75;2.10;;;13.60;99.90;;;;;;5025988;28;20026;-79
2023/08/08 00:26:01;;;;;;;5.00;2.22;;;13.70;99.90;;;;;;5012891;28;20026;-79
2023/08/08 00:28:27;;;;;;;5.30;2.35;;;13.70;99.90;;;;;;4995434;28;20050;-79
2023/08/08 00:30:52;;;;;;;5.45;2.42;;;13.70;99.90;;;;;;5011724;28;20454;-79
2023/08/08 00:33:18;;;;;;;5.85;2.20;;;13.70;99.90;;;;;;5012611;28;20080;-80
2023/08/08 00:35:44;;;;;;;7.25;2.30;;;13.70;99.90;;;;;;5029671;28;20084;-79
2023/08/08 00:38:10;;;;;;;5.20;2.20;;;13.80;99.90;;;;;;5015457;28;20449;-79
2023/08/08 00:40:35;;;;;;;8.95;2.47;;;13.80;99.90;;;;;;5015431;28;20038;-80
2023/08/08 00:43:01;;;;;;;5.88;2.33;;;13.90;99.90;;;;;;4998795;28;20517;-80
2023/08/08 00:45:27;;;;;;;5.53;2.08;;;13.90;99.90;;;;;;5027736;28;20069;-80
2023/08/08 00:47:53;;;;;;;8.75;2.88;;;13.90;99.90;;;;;;5034340;28;20415;-81
2023/08/08 00:50:19;;;;;;;6.25;2.33;;;13.90;99.90;;;;;;5018526;28;20036;-81
2023/08/08 00:52:45;;;;;;;8.05;2.60;;;13.90;99.90;;;;;;5018090;28;20044;-81
2023/08/08 00:55:11;;;;;;;8.35;2.80;;;13.90;99.90;;;;;;5023859;28;20064;-80
2023/08/08 00:57:38;;;;;;;7.00;2.47;;;13.80;99.90;;;;;;5029456;28;20164;-81
2023/08/08 01:00:09;;;;;;;4.72;2.45;;;13.90;99.90;;;;;;5022957;28;20041;-80
2023/08/08 01:02:34;;;;;;;5.00;2.25;;;13.90;99.90;;;;;;5030625;28;20383;-82
2023/08/08 01:05:01;;;;;;;5.32;2.50;;;13.90;99.90;;;;;;5012793;28;20045;-80
2023/08/08 01:07:41;;;;;;;6.65;2.80;;;14.00;99.90;;;;;;5025172;28;20034;-80
2023/08/08 01:10:14;;;;;;;8.77;2.67;;;13.90;99.90;;;;;;5029274;28;20096;-80
2023/08/08 01:12:52;;;;;;;7.68;3.00;;;13.90;99.90;;;;;;5000567;28;20104;-78
2023/08/08 01:15:19;;;;;;;5.07;2.60;;;14.00;99.90;;;;;;5019483;28;20048;-79
2023/08/08 01:17:46;;;;;;;5.47;2.60;;;13.90;99.90;;;;;;5029345;28;20041;-80
2023/08/08 01:20:16;;;;;;;7.90;2.67;;;13.90;99.90;;;;;;5032580;28;20104;-81
2023/08/08 01:23:23;;;;;;;7.72;3.03;;;13.80;99.90;;;;;;5029078;28;20041;-80
2023/08/08 01:25:50;;;;;;;9.38;2.60;;;13.90;99.90;;;;;;4998544;28;20053;-81
2023/08/08 01:28:15;;;;;;;8.40;3.17;;;13.80;99.90;;;;;;5014359;28;20061;-80
2023/08/08 01:30:42;;;;;;;6.22;2.53;;;13.80;99.90;;;;;;5042337;28;20033;-80
2023/08/08 01:33:08;;;;;;;8.25;3.00;;;13.90;99.90;;;;;;5020924;28;20053;-80
2023/08/08 01:35:41;;;;;;;7.68;3.22;;;13.80;99.90;;;;;;5014163;28;20413;-79
2023/08/08 01:38:14;;;;;;;8.93;2.78;;;13.90;99.90;;;;;;4999641;28;20042;-79
2023/08/08 01:40:41;;;;;;;8.18;2.47;;;13.90;99.90;;;;;;5026525;28;20381;-81
2023/08/08 01:43:08;;;;;;;6.05;2.50;;;13.90;99.90;;;;;;5013400;28;20444;-80
2023/08/08 01:45:34;;;;;;;7.90;3.08;;;13.90;99.90;;;;;;5023220;28;20113;-80
2023/08/08 01:47:59;;;;;;;7.45;2.60;;;13.90;99.90;;;;;;5020271;28;20156;-79
2023/08/08 01:50:25;;;;;;;6.65;2.70;;;13.90;99.90;;;;;;5032808;28;20041;-80
2023/08/08 01:52:51;;;;;;;6.53;2.90;;;13.90;99.90;;;;;;5000066;28;20049;-80
2023/08/08 01:55:16;;;;;;;6.25;2.80;;;13.90;99.90;;;;;;5008772;28;20047;-80
2023/08/08 01:57:42;;;;;;;6.03;2.63;;;13.90;99.90;;;;;;5021832;28;20630;-80
2023/08/08 02:00:08;;;;;;;7.38;2.90;;;13.90;99.90;;;;;;5036853;28;20052;-80
2023/08/08 02:02:35;;;;;;;6.18;2.60;;;13.90;99.90;;;;;;5036486;28;20387;-80
2023/08/08 02:05:02;;;;;;;5.60;2.70;;;13.90;99.90;;;;;;5014867;28;20109;-80
2023/08/08 02:07:27;;;;;;;6.28;2.70;;;13.90;99.90;;;;;;5015958;28;20109;-80
2023/08/08 02:09:53;;;;;;;6.10;2.70;;;13.90;99.90;;;;;;5013608;28;20538;-80
2023/08/08 02:12:18;;;;;;;6.07;3.25;;;13.90;99.90;;;;;;5001740;28;20049;-80
2023/08/08 02:14:44;;;;;;;6.32;2.65;;;13.90;99.90;;;;;;5018922;28;20549;-80
2023/08/08 02:17:10;;;;;;;7.85;3.25;;;13.90;99.90;;;;;;5015139;28;20108;-79
2023/08/08 02:19:35;;;;;;;8.07;2.75;;;13.90;99.90;;;;;;4997403;28;20053;-80
2023/08/08 02:22:01;;;;;;;7.70;2.70;;;13.90;99.90;;;;;;4999462;28;20512;-80
2023/08/08 02:24:26;;;;;;;9.23;2.80;;;13.90;99.90;;;;;;5023623;28;20033;-80
2023/08/08 02:26:53;;;;;;;6.93;2.85;;;13.90;99.90;;;;;;5025340;28;20049;-80
2023/08/08 02:29:19;;;;;;;10.55;2.90;;;13.90;99.90;;;;;;5021456;28;20045;-80
2023/08/08 02:31:44;;;;;;;6.57;2.70;;;13.90;99.90;;;;;;5030768;28;20037;-80
2023/08/08 02:34:10;;;;;;;8.93;2.92;;;13.90;99.90;;;;;;5021405;28;20049;-80
2023/08/08 02:36:35;;;;;;;6.25;3.10;;;14.00;99.90;;;;;;5022026;28;20044;-80
2023/08/08 02:39:01;;;;;;;7.07;2.55;;;13.90;99.90;;;;;;5030627;28;20037;-80
2023/08/08 02:41:26;;;;;;;7.18;2.63;;;14.00;99.90;;;;;;5031923;28;20447;-80
2023/08/08 02:43:52;;;;;;;6.03;2.90;;;14.00;99.90;;;;;;5030178;28;20528;-80
2023/08/08 02:46:18;;;;;;;8.05;2.80;;;14.10;99.90;;;;;;5023415;28;20030;-79
2023/08/08 02:48:43;;;;;;;6.10;2.55;;;14.10;99.90;;;;;;5021367;28;20076;-79
2023/08/08 02:51:09;;;;;;;7.93;2.88;;;14.00;99.90;;;;;;5027674;28;20486;-80
2023/08/08 02:53:35;;;;;;;7.90;3.10;;;14.10;99.90;;;;;;5005488;28;20064;-80
2023/08/08 02:56:00;;;;;;;5.53;3.00;;;14.00;99.90;;;;;;5015342;28;20033;-80
2023/08/08 02:58:26;;;;;;;5.97;3.30;;;14.00;99.90;;;;;;5029913;28;20051;-80
2023/08/08 03:00:52;;;;;;;7.40;2.90;;;14.00;99.90;;;;;;5024590;28;20068;-80
2023/08/08 03:03:18;;;;;;;7.72;3.10;;;13.90;99.90;;;;;;5029565;28;20072;-80
2023/08/08 03:05:45;;;;;;;8.75;3.10;;;14.00;99.90;;;;;;5013847;28;20084;-80
2023/08/08 03:08:10;;;;;;;6.90;2.60;;;13.90;99.90;;;;;;5005664;28;20091;-80
2023/08/08 03:10:36;;;;;;;7.82;3.28;;;13.90;99.90;;;;;;5031381;28;20498;-80
2023/08/08 03:13:01;;;;;;;8.43;3.13;;;14.00;99.90;;;;;;5017242;28;20042;-80
2023/08/08 03:15:27;;;;;;;7.85;2.80;;;13.90;99.90;;;;;;5027426;28;20033;-80
2023/08/08 03:17:53;;;;;;;7.38;3.22;;;14.00;99.90;;;;;;5022702;28;20053;-80
2023/08/08 03:20:18;;;;;;;6.28;2.80;;;13.90;99.90;;;;;;5033284;28;20037;-81
2023/08/08 03:22:44;;;;;;;5.53;2.97;;;14.00;99.90;;;;;;5028278;28;20108;-80
2023/08/08 03:25:10;;;;;;;7.82;3.20;;;13.90;99.90;;;;;;5027927;28;20406;-80
2023/08/08 03:27:35;;;;;;;9.73;3.17;;;13.90;99.90;;;;;;4999268;28;20046;-80
2023/08/08 03:30:01;;;;;;;6.88;3.15;;;13.90;99.90;;;;;;5021479;28;20124;-80
2023/08/08 03:32:28;;;;;;;6.35;2.88;;;13.80;99.90;;;;;;5022412;28;20045;-80
2023/08/08 03:34:53;;;;;;;7.55;3.00;;;13.80;99.90;;;;;;5012359;28;20130;-80
2023/08/08 03:37:19;;;;;;;7.38;2.78;;;13.90;99.90;;;;;;5020962;28;20120;-79
2023/08/08 03:39:45;;;;;;;6.82;2.90;;;13.90;99.90;;;;;;5017320;28;20038;-79
2023/08/08 03:42:10;;;;;;;8.18;2.50;;;13.90;99.90;;;;;;5020165;28;20413;-79
2023/08/08 03:44:36;;;;;;;8.45;2.88;;;13.80;99.90;;;;;;5017757;28;20109;-79
2023/08/08 03:47:01;;;;;;;8.18;2.65;;;13.90;99.90;;;;;;5020269;28;20061;-79
2023/08/08 03:49:27;;;;;;;8.55;2.53;;;13.80;99.90;;;;;;5020740;28;20121;-80
2023/08/08 03:51:53;;;;;;;7.90;2.70;;;13.80;99.90;;;;;;5010936;28;20048;-80
2023/08/08 03:54:18;;;;;;;6.43;2.53;;;13.80;99.90;;;;;;5030714;28;20176;-80
2023/08/08 03:56:44;;;;;;;8.45;2.53;;;13.80;99.90;;;;;;4998073;28;20409;-80
2023/08/08 03:59:09;;;;;;;8.77;2.85;;;13.70;99.90;;;;;;5017853;28;20038;-80
2023/08/08 04:01:37;;;;;;;9.75;3.08;;;13.70;99.90;;;;;;4995881;28;20038;-80
2023/08/08 04:04:03;;;;;;;6.95;2.60;;;13.70;99.90;;;;;;5030129;28;20042;-81
2023/08/08 04:06:29;;;;;;;8.88;2.70;;;13.80;99.90;;;;;;5011930;28;20038;-81
2023/08/08 04:08:55;;;;;;;8.27;3.25;;;13.80;99.90;;;;;;5015907;28;20041;-80
2023/08/08 04:11:20;;;;;;;7.82;2.78;;;13.80;99.90;;;;;;5018867;28;20073;-80
2023/08/08 04:13:46;;;;;;;7.78;3.13;;;13.80;99.90;;;;;;5017985;28;20048;-79
2023/08/08 04:16:12;;;;;;;7.82;3.08;;;13.70;99.90;;;;;;5034713;28;20075;-79
2023/08/08 04:18:37;;;;;;;10.73;3.00;;;13.80;99.90;;;;;;5033816;28;20069;-79
2023/08/08 04:21:03;;;;;;;9.63;2.90;;;13.80;99.90;;;;;;5020684;28;20065;-79
2023/08/08 04:23:29;;;;;;;8.77;2.72;;;13.90;99.90;;;;;;5015781;28;20398;-78
2023/08/08 04:25:55;;;;;;;7.55;2.47;;;13.90;99.90;;;;;;5014990;28;20283;-78
2023/08/08 04:28:20;;;;;;;8.50;2.78;;;13.90;99.90;;;;;;5016539;28;20046;-78
2023/08/08 04:30:46;;;;;;;9.43;2.80;;;13.80;99.90;;;;;;5034436;28;20033;-78
2023/08/08 04:33:12;;;;;;;7.57;2.80;;;13.80;99.90;;;;;;5018629;28;20093;-78
2023/08/08 04:35:37;;;;;;;6.97;2.60;;;13.80;99.90;;;;;;5024113;28;20430;-78
2023/08/08 04:38:03;;;;;;;6.45;2.65;;;13.70;99.90;;;;;;5031880;28;20030;-78
2023/08/08 04:40:29;;;;;;;8.10;2.85;;;13.70;99.90;;;;;;5016879;28;20444;-77
2023/08/08 04:42:55;;;;;;;7.47;2.80;;;13.70;99.90;;;;;;5015230;28;20038;-77
2023/08/08 04:45:21;;;;;;;6.40;2.42;;;13.70;99.90;;;;;;5019334;28;20397;-78
2023/08/08 04:47:47;;;;;;;7.75;2.65;;;13.70;99.90;;;;;;4999032;28;20038;-77
2023/08/08 04:50:13;;;;;;;6.90;2.40;;;13.70;99.90;;;;;;5013066;28;20052;-77
2023/08/08 04:52:38;;;;;;;8.88;2.42;;;13.70;99.90;;;;;;5029173;28;20033;-77
2023/08/08 04:55:05;;;;;;;9.27;2.38;;;13.80;99.90;;;;;;5043995;28;20038;-78
2023/08/08 04:57:30;;;;;;;6.07;2.00;;;13.80;99.90;;;;;;5014859;28;20494;-77
2023/08/08 04:59:56;;;;;;;5.63;2.00;;;13.80;99.90;;;;;;5018173;28;20037;-77
2023/08/08 05:02:22;;;;;;;7.70;2.30;;;13.80;99.90;;;;;;5030375;28;20065;-77
2023/08/08 05:04:48;;;;;;;11.73;2.42;;;13.80;99.90;;;;;;5010885;28;20110;-77
2023/08/08 05:07:13;;;;;;;6.85;2.00;;;13.70;99.90;;;;;;5002567;28;20034;-77
2023/08/08 05:09:40;;;;;;;4.10;1.73;;;13.80;99.90;;;;;;5030787;28;20121;-77
2023/08/08 05:12:06;;;;;;;8.55;2.20;;;13.70;99.90;;;;;;5030094;28;20042;-77
2023/08/08 05:14:31;;;;;;;5.15;1.98;;;13.70;99.90;;;;;;5033980;28;20437;-76
2023/08/08 05:16:57;;;;;;;6.68;1.88;;;13.70;99.90;;;;;;5024653;28;20042;-77
2023/08/08 05:19:24;;;;;;;7.20;2.20;;;13.80;99.90;;;;;;5016664;28;20466;-77
2023/08/08 05:21:49;;;;;;;7.22;1.65;;;13.80;99.90;;;;;;4997693;28;20042;-77
2023/08/08 05:24:15;;;;;;;7.47;2.00;;;13.80;99.90;;;;;;5020498;28;20036;-77
2023/08/08 05:26:41;;;;;;;8.52;1.95;;;13.80;99.90;;;;;;5033939;28;20060;-77
2023/08/08 05:29:06;;;;;;;7.68;1.73;;;13.80;99.90;;;;;;5028236;28;20058;-77
2023/08/08 05:31:32;;;;;;;9.77;2.05;;;13.80;99.90;;;;;;5032895;28;20481;-77
2023/08/08 05:33:57;;;;;;;6.90;1.80;;;13.90;99.90;;;;;;5030201;28;20037;-77
2023/08/08 05:36:23;;;;;;;8.65;1.98;;;13.90;99.90;;;;;;5031943;28;20069;-77
2023/08/08 05:38:49;;;;;;;8.20;1.80;;;13.90;99.90;;;;;;5009750;28;20049;-77
2023/08/08 05:41:14;;;;;;;6.53;2.17;;;14.00;99.90;;;;;;5016696;28;20041;-77
2023/08/08 05:43:40;;;;;;;7.72;1.85;;;14.00;99.90;;;;;;5022464;28;20489;-77
2023/08/08 05:46:06;;;;;;;9.30;2.15;;;14.00;99.90;;;;;;5012700;28;20124;-77
2023/08/08 05:48:32;;;;;;;8.98;2.08;;;14.10;99.90;;;;;;5029958;28;20124;-77
2023/08/08 05:50:58;;;;;;;9.00;2.13;;;14.10;99.90;;;;;;5007883;28;20191;-77
2023/08/08 05:53:24;;;;;;;9.82;2.08;;;14.20;99.90;;;;;;5026791;28;20089;-77
2023/08/08 05:55:50;;;;;;;10.05;1.80;;;14.30;99.90;;;;;;5011325;28;20125;-77
2023/08/08 05:58:15;;;;;;;7.70;1.80;;;14.30;99.90;;;;;;5027206;28;20037;-78
2023/08/08 06:00:42;;;;;;;9.20;1.75;;;14.40;99.90;;;;;;5027030;28;20189;-78
2023/08/08 06:03:08;;;;;;;9.57;1.92;;;14.40;99.90;;;;;;5032051;28;20049;-77
2023/08/08 06:05:33;;;;;;;6.38;1.70;;;14.50;99.90;;;;;;5017139;28;20030;-78
2023/08/08 06:07:59;;;;;;;5.03;1.73;;;14.60;99.90;;;;;;5012693;28;20046;-78
2023/08/08 06:10:25;;;;;;;6.28;1.77;;;14.70;99.90;;;;;;5002197;28;20042;-78
2023/08/08 06:12:50;;;;;;;8.70;1.70;;;14.80;99.90;;;;;;5019056;28;20529;-78
2023/08/08 06:15:16;;;;;;;8.93;1.88;;;14.90;99.90;;;;;;5030064;28;20053;-78
2023/08/08 06:17:42;;;;;;;6.25;1.48;;;15.00;99.90;;;;;;5020668;28;20039;-78
2023/08/08 06:20:09;;;;;;;7.47;1.77;;;15.00;99.90;;;;;;5019755;28;20091;-79
2023/08/08 06:22:35;;;;;;;6.55;1.73;;;15.10;99.90;;;;;;5018938;28;20128;-79
2023/08/08 06:25:00;;;;;;;6.47;1.63;;;15.20;99.90;;;;;;5017402;28;20121;-79
2023/08/08 06:27:26;;;;;;;7.70;1.65;;;15.20;99.90;;;;;;5023183;28;20418;-80
2023/08/08 06:29:51;;;;;;;6.85;1.67;;;15.30;99.90;;;;;;5019480;28;20041;-79
2023/08/08 06:32:17;;;;;;;7.47;1.63;;;15.40;99.90;;;;;;5013753;28;20064;-79
2023/08/08 06:34:43;;;;;;;9.48;1.70;;;15.50;99.90;;;;;;5032210;28;20029;-79
2023/08/08 06:37:08;;;;;;;9.30;2.17;;;15.50;99.90;;;;;;5028440;28;20037;-79
2023/08/08 06:39:34;;;;;;;7.22;1.70;;;15.50;99.90;;;;;;5032577;28;20118;-79
2023/08/08 06:42:00;;;;;;;6.38;1.70;;;15.60;99.90;;;;;;5020572;28;20073;-79
2023/08/08 06:44:26;;;;;;;5.18;1.60;;;15.60;99.90;;;;;;5013213;28;20457;-79
2023/08/08 06:46:51;;;;;;;7.43;1.58;;;15.70;99.90;;;;;;5025497;28;20120;-79
2023/08/08 06:49:17;;;;;;;6.75;1.48;;;15.80;99.90;;;;;;5024788;28;20041;-79
2023/08/08 06:51:42;;;;;;;6.15;1.40;;;15.90;99.90;;;;;;5026810;28;20049;-80
2023/08/08 06:54:08;;;;;;;5.60;1.50;;;15.90;99.90;;;;;;5007034;28;20076;-80
2023/08/08 06:56:33;;;;;;;8.48;1.55;;;15.90;99.90;;;;;;5007635;28;20038;-80
2023/08/08 06:58:59;;;;;;;6.38;1.50;;;16.00;99.90;;;;;;5011434;28;20038;-80
2023/08/08 07:01:25;;;;;;;5.97;1.60;;;16.00;99.90;;;;;;5026614;28;20076;-80
2023/08/08 07:03:50;;;;;;;8.38;1.42;;;16.00;99.90;;;;;;5026346;28;20033;-80
2023/08/08 07:06:19;;;;;;;6.25;1.45;;;16.00;99.90;;;;;;5005715;28;20466;-79
2023/08/08 07:08:45;;;;;;;9.95;1.80;;;16.10;99.90;;;;;;5026287;28;20033;-82
2023/08/08 07:11:10;;;;;;;7.47;1.65;;;16.10;99.90;;;;;;5030842;28;20378;-79
2023/08/08 07:13:36;;;;;;;5.63;1.30;;;16.20;99.90;;;;;;5027478;28;20549;-79
2023/08/08 07:16:02;;;;;;;8.98;1.52;;;16.30;99.90;;;;;;5028295;28;20049;-79
2023/08/08 07:18:27;;;;;;;5.65;1.35;;;16.30;99.90;;;;;;5030075;28;20041;-79
2023/08/08 07:20:53;;;;;;;4.20;1.15;;;16.30;99.90;;;;;;5032161;28;20069;-79
2023/08/08 07:23:19;;;;;;;4.90;1.20;;;16.40;99.90;;;;;;5031209;28;20370;-79
2023/08/08 07:25:46;;;;;;;5.35;1.30;;;16.50;99.90;;;;;;5012504;28;20036;-79
2023/08/08 07:28:14;;;;;;;7.13;1.30;;;16.40;99.90;;;;;;5014061;28;20107;-80
2023/08/08 07:30:40;;;;;;;8.05;1.40;;;16.40;99.90;;;;;;5031813;28;20045;-80
2023/08/08 07:33:08;;;;;;;6.88;1.10;;;16.50;99.90;;;;;;5028896;28;20051;-79
2023/08/08 07:35:34;;;;;;;5.93;1.20;;;16.50;99.90;;;;;;5014770;28;20044;-80
2023/08/08 07:37:59;;;;;;;5.85;1.20;;;16.70;99.90;;;;;;5014281;28;20049;-79
2023/08/08 07:40:25;;;;;;;5.72;1.33;;;16.80;99.90;;;;;;5026775;28;20489;-79
2023/08/08 07:42:51;;;;;;;10.35;1.42;;;16.70;99.90;;;;;;5024489;28;20041;-80
2023/08/08 07:45:16;;;;;;;5.03;1.25;;;16.60;99.90;;;;;;5021227;28;20029;-79
2023/08/08 07:47:42;;;;;;;5.68;1.17;;;16.60;99.90;;;;;;5013170;28;20619;-79
2023/08/08 07:50:08;;;;;;;5.88;1.20;;;16.60;99.90;;;;;;5020335;28;20068;-79
2023/08/08 07:52:35;;;;;;;6.07;1.00;;;16.60;99.90;;;;;;5030576;28;20033;-80
2023/08/08 07:55:01;;;;;;;6.57;1.23;;;16.70;99.90;;;;;;5033326;28;20072;-80
2023/08/08 07:57:27;;;;;;;6.05;1.38;;;16.80;99.90;;;;;;5020151;28;20061;-79
2023/08/08 07:59:53;;;;;;;7.25;1.60;;;16.80;99.90;;;;;;5037653;28;20049;-79
2023/08/08 08:02:18;;;;;;;5.45;1.30;;;16.80;99.90;;;;;;5010198;28;20034;-78
2023/08/08 08:04:44;;;;;;;9.35;1.35;;;17.00;99.90;;;;;;5018071;28;20073;-79
2023/08/08 08:07:09;;;;;;;5.38;1.00;;;17.00;99.90;;;;;;5019202;28;20478;-79
2023/08/08 08:09:35;;;;;;;6.80;1.20;;;17.10;99.90;;;;;;5029262;28;20041;-79
2023/08/08 08:12:00;;;;;;;9.60;1.60;;;16.90;99.90;;;;;;5019586;28;20458;-79
2023/08/08 08:14:26;;;;;;;5.75;1.33;;;16.80;99.90;;;;;;5032196;28;20124;-79
2023/08/08 08:16:52;;;;;;;8.05;1.30;;;16.80;99.90;;;;;;5036589;28;20383;-80
2023/08/08 08:19:17;;;;;;;6.18;1.00;;;16.80;99.90;;;;;;5035652;28;20049;-79
2023/08/08 08:21:43;;;;;;;4.15;0.90;;;16.80;99.90;;;;;;5037856;28;20041;-80
2023/08/08 08:24:09;;;;;;;8.05;1.33;;;16.80;99.90;;;;;;5012501;28;20045;-81
2023/08/08 08:26:35;;;;;;;5.25;1.30;;;16.70;99.90;;;;;;5017454;28;20038;-80
2023/08/08 08:29:01;;;;;;;6.65;1.02;;;16.70;99.90;;;;;;5033919;28;20052;-79
2023/08/08 08:31:26;;;;;;;6.10;1.08;;;16.80;99.90;;;;;;5017499;28;20045;-79
2023/08/08 08:33:55;;;;;;;4.18;1.02;;;16.80;99.90;;;;;;5023922;28;20041;-79
2023/08/08 08:36:21;;;;;;;7.97;1.08;;;16.90;99.90;;;;;;5026644;28;20125;-79
2023/08/08 08:38:47;;;;;;;5.20;1.20;;;16.90;99.90;;;;;;5017984;28;20500;-79
2023/08/08 08:41:17;;;;;;;5.28;1.10;;;16.80;99.90;;;;;;5019382;28;20124;-79
2023/08/08 08:43:42;;;;;;;6.63;1.17;;;16.80;99.90;;;;;;5035251;28;20434;-79
2023/08/08 08:46:11;;;;;;;6.93;1.30;;;16.80;99.90;;;;;;5033305;28;20029;-79
2023/08/08 08:48:37;;;;;;;6.78;1.30;;;16.70;99.90;;;;;;5037273;28;20048;-80
2023/08/08 08:51:02;;;;;;;8.45;1.50;;;16.70;99.90;;;;;;5030254;28;20119;-79
2023/08/08 08:53:28;;;;;;;6.60;1.33;;;16.80;99.90;;;;;;5036421;28;20053;-79
2023/08/08 08:55:56;;;;;;;7.85;1.20;;;16.80;99.90;;;;;;5014012;28;20056;-79
2023/08/08 08:58:24;;;;;;;4.03;1.00;;;16.80;99.90;;;;;;5027257;28;20053;-79
2023/08/08 09:00:51;;;;;;;4.68;1.13;;;16.70;99.90;;;;;;5017385;28;20068;-76
2023/08/08 09:03:16;;;;;;;5.03;1.27;;;16.60;99.90;;;;;;5034214;28;20117;-80
2023/08/08 09:05:44;;;;;;;5.40;1.30;;;16.50;99.90;;;;;;5005059;28;20125;-78
2023/08/08 09:08:11;;;;;;;7.57;1.55;;;16.40;99.90;;;;;;5022250;28;20101;-77
2023/08/08 09:10:38;;;;;;;8.65;1.95;;;16.10;99.90;;;;;;5033911;28;20049;-78
2023/08/08 09:13:04;;;;;;;7.78;1.55;;;15.90;99.90;;;;;;5020397;28;20068;-78
2023/08/08 09:15:33;;;;;;;8.90;1.50;;;15.90;99.90;;;;;;5011994;28;20041;-78
2023/08/08 09:17:59;;;;;;;9.65;1.67;;;16.00;99.90;;;;;;5033539;28;20041;-78
2023/08/08 09:20:28;;;;;;;5.20;1.45;;;16.20;99.90;;;;;;5015980;28;20045;-78
2023/08/08 09:22:54;;;;;;;5.43;1.40;;;16.30;99.90;;;;;;5002386;28;20045;-78
2023/08/08 09:25:19;;;;;;;6.93;1.33;;;16.40;99.90;;;;;;5012323;28;20029;-78
2023/08/08 09:27:45;;;;;;;5.18;1.25;;;16.40;99.90;;;;;;5016775;28;20053;-78
2023/08/08 09:30:14;;;;;;;6.93;1.40;;;16.40;99.90;;;;;;5032517;28;20045;-77
2023/08/08 09:32:39;;;;;;;6.32;1.50;;;16.20;99.90;;;;;;5032794;28;20037;-78
2023/08/08 09:35:09;;;;;;;6.30;1.30;;;16.00;99.90;;;;;;5030714;28;20037;-77
2023/08/08 09:37:35;;;;;;;4.90;1.35;;;15.90;99.90;;;;;;4997589;28;20061;-79
2023/08/08 09:40:07;;;;;;;4.72;1.30;;;15.80;99.90;;;;;;5031800;28;20045;-78
2023/08/08 09:42:33;;;;;;;9.50;1.50;;;16.00;99.90;;;;;;5031571;28;20047;-79
2023/08/08 09:45:00;;;;;;;8.63;1.48;;;16.20;99.90;;;;;;5013669;28;20146;-79
2023/08/08 09:47:31;;;;;;;9.35;1.38;;;16.20;99.90;;;;;;5026519;28;20048;-79
2023/08/08 09:50:00;;;;;;;6.93;1.30;;;16.30;99.90;;;;;;5032894;28;20033;-79
2023/08/08 09:52:27;;;;;;;5.93;1.92;;;16.30;99.90;;;;;;5005523;28;20371;-79
2023/08/08 09:54:54;;;;;;;7.53;1.40;;;16.20;99.90;;;;;;5002656;28;20041;-79
2023/08/08 09:57:21;;;;;;;5.25;1.30;;;16.20;99.90;;;;;;5015658;28;20401;-78
2023/08/08 09:59:48;;;;;;;6.10;1.40;;;16.20;99.90;;;;;;5024974;28;20554;-79
2023/08/08 10:02:15;;;;;;;8.10;1.80;;;16.10;99.90;;;;;;5006051;28;20037;-79
2023/08/08 10:04:41;;;;;;;8.38;1.50;;;16.40;99.90;;;;;;4996627;28;20537;-79
2023/08/08 10:07:07;;;;;;;8.45;1.60;;;16.30;99.90;;;;;;4996881;28;20049;-79
2023/08/08 10:09:33;;;;;;;5.03;1.50;;;16.50;99.90;;;;;;5010512;28;20049;-79
2023/08/08 10:12:00;;;;;;;6.55;1.50;;;16.70;99.90;;;;;;5040083;28;20045;-79
2023/08/08 10:14:31;;;;;;;4.40;1.42;;;16.80;99.90;;;;;;5028506;28;20120;-79
2023/08/08 10:16:56;;;;;;;7.00;1.40;;;16.90;99.90;;;;;;5032381;28;20037;-79
2023/08/08 10:19:23;;;;;;;6.60;1.45;;;16.90;99.90;;;;;;5027908;28;20358;-79
2023/08/08 10:21:59;;;;;;;6.43;1.85;;;17.00;99.90;;;;;;5016164;28;20108;-80
2023/08/08 10:24:24;;;;;;;4.82;1.20;;;16.80;99.90;;;;;;5029551;28;20053;-79
2023/08/08 10:26:57;;;;;;;9.65;1.80;;;16.90;99.90;;;;;;5028765;28;20045;-79
2023/08/08 10:29:25;;;;;;;5.38;1.35;;;17.10;99.90;;;;;;5030041;28;20064;-79
2023/08/08 10:31:52;;;;;;;7.90;1.60;;;17.10;99.90;;;;;;5047360;28;20386;-78
2023/08/08 10:34:20;;;;;;;8.55;1.60;;;17.10;99.90;;;;;;5019986;28;20103;-78
2023/08/08 10:36:51;;;;;;;7.18;1.77;;;17.00;99.90;;;;;;5030422;28;20052;-77
2023/08/08 10:39:21;;;;;;;6.65;1.50;;;17.00;99.90;;;;;;5047349;28;20059;-79
2023/08/08 10:41:50;;;;;;;6.55;1.40;;;17.10;99.90;;;;;;5034817;28;20413;-76
2023/08/08 10:44:23;;;;;;;8.20;1.73;;;17.00;99.90;;;;;;5025738;28;20037;-81
2023/08/08 10:46:52;;;;;;;7.10;1.60;;;16.80;99.90;;;;;;5026660;28;20113;-79
2023/08/08 10:49:17;;;;;;;5.47;1.60;;;16.90;99.90;;;;;;5024638;28;20064;-79
2023/08/08 10:51:46;;;;;;;5.25;1.40;;;16.90;99.90;;;;;;5032155;28;20494;-79
2023/08/08 10:54:15;;;;;;;9.40;1.70;;;17.10;99.90;;;;;;5014545;28;20045;-79
2023/08/08 10:56:47;;;;;;;8.15;1.75;;;17.20;99.90;;;;;;5018451;28;20091;-79
2023/08/08 10:59:24;;;;;;;6.97;1.50;;;17.20;99.90;;;;;;5011079;28;20120;-79
2023/08/08 11:01:52;;;;;;;7.20;1.38;;;16.90;99.90;;;;;;5008703;28;20039;-80
2023/08/08 11:04:23;;;;;;;7.25;1.50;;;16.90;99.90;;;;;;5030967;28;20519;-83
2023/08/08 11:06:49;;;;;;;8.90;1.83;;;16.90;99.90;;;;;;5031040;28;20038;-87
2023/08/08 11:09:16;;;;;;;9.02;2.08;;;16.90;99.90;;;;;;5015581;28;20041;-86
2023/08/08 11:11:43;;;;;;;5.95;1.25;;;16.90;99.90;;;;;;5016104;28;20047;-87
2023/08/08 11:14:17;;;;;;;5.13;1.60;;;16.90;99.90;;;;;;5015624;28;20033;-88
2023/08/08 11:16:44;;;;;;;6.68;1.65;;;17.20;99.90;;;;;;5026534;28;20076;-83
2023/08/08 11:19:12;;;;;;;6.68;1.55;;;17.50;99.90;;;;;;5011953;28;20040;-82
2023/08/08 11:21:41;;;;;;;5.65;1.60;;;17.40;99.90;;;;;;5024345;28;20112;-82
2023/08/08 11:24:07;;;;;;;5.55;1.40;;;17.40;99.90;;;;;;5027730;28;20489;-83
2023/08/08 11:26:37;;;;;;;7.00;1.27;;;17.40;99.90;;;;;;4999441;28;20049;-83
2023/08/08 11:29:08;;;;;;;7.38;1.70;;;17.50;99.90;;;;;;5003056;28;20049;-84
2023/08/08 11:31:37;;;;;;;7.85;1.40;;;17.60;99.90;;;;;;5002634;28;20129;-85
2023/08/08 11:34:05;;;;;;;8.75;1.55;;;17.70;99.90;;;;;;5014513;28;20048;-84
2023/08/08 11:36:35;;;;;;;7.22;1.20;;;17.80;99.90;;;;;;5023138;28;20033;-85
2023/08/08 11:39:07;;;;;;;5.78;1.20;;;17.90;99.90;;;;;;5027430;28;20038;-83
2023/08/08 11:41:35;;;;;;;6.78;1.33;;;17.90;99.90;;;;;;5025558;28;20084;-83
2023/08/08 11:44:05;;;;;;;6.43;1.48;;;17.80;99.90;;;;;;5028193;28;20034;-85
2023/08/08 11:46:30;;;;;;;7.20;1.20;;;17.50;99.90;;;;;;5017494;28;20057;-84
2023/08/08 11:49:06;;;;;;;8.48;2.22;;;17.30;99.90;;;;;;5023404;28;20045;-84
2023/08/08 11:51:33;;;;;;;7.15;1.33;;;17.20;99.90;;;;;;5023628;28;20046;-84
2023/08/08 11:54:00;;;;;;;4.72;1.45;;;17.40;99.90;;;;;;5028784;28;20497;-84
2023/08/08 11:56:26;;;;;;;6.50;1.23;;;17.60;99.90;;;;;;5000315;28;20490;-83
2023/08/08 11:58:52;;;;;;;9.02;1.27;;;17.70;99.90;;;;;;5002359;28;20042;-84
2023/08/08 12:01:27;;;;;;;4.15;1.10;;;17.70;99.90;;;;;;5020560;28;20079;-84
2023/08/08 12:03:54;;;;;;;7.68;1.25;;;17.90;99.90;;;;;;5005877;28;20041;-84
2023/08/08 12:06:20;;;;;;;5.88;1.20;;;18.00;99.90;;;;;;5018079;28;20030;-85
2023/08/08 12:08:47;;;;;;;3.72;0.90;;;18.00;99.90;;;;;;5021099;28;20037;-84
2023/08/08 12:11:14;;;;;;;5.55;1.30;;;18.00;99.90;;;;;;5009154;28;20118;-84
2023/08/08 12:13:43;;;;;;;5.68;1.00;;;18.10;99.90;;;;;;5030006;28;20501;-83
2023/08/08 12:16:11;;;;;;;4.55;1.08;;;18.10;99.90;;;;;;5023216;28;20129;-84
2023/08/08 12:18:38;;;;;;;5.93;1.10;;;18.00;99.90;;;;;;5011652;28;20410;-84
2023/08/08 12:21:08;;;;;;;9.25;1.17;;;17.90;99.90;;;;;;5029927;28;20040;-84
2023/08/08 12:23:34;;;;;;;6.32;1.55;;;18.00;99.90;;;;;;5004798;28;20076;-83
2023/08/08 12:26:03;;;;;;;4.93;1.15;;;18.00;99.90;;;;;;5013081;28;20408;-84
2023/08/08 12:28:29;;;;;;;4.20;1.10;;;17.70;99.90;;;;;;5005961;28;20512;-85
2023/08/08 12:30:54;;;;;;;6.40;1.48;;;17.60;99.90;;;;;;5025914;28;20041;-84
2023/08/08 12:33:20;;;;;;;4.72;1.05;;;17.70;99.90;;;;;;5015683;28;20044;-84
2023/08/08 12:35:47;;;;;;;5.22;1.20;;;17.60;99.90;;;;;;5017002;28;20048;-83
2023/08/08 12:38:12;;;;;;;7.63;1.38;;;17.70;99.90;;;;;;5010506;28;20042;-87
2023/08/08 12:40:38;;;;;;;6.15;0.95;;;17.90;99.90;;;;;;5014859;28;20374;-87
2023/08/08 12:43:07;;;;;;;4.85;1.02;;;18.00;99.90;;;;;;5018631;28;20026;-87